createdAt,value
2018-07-26T00:00:00.397Z,6.7
2018-07-26T00:01:16.336Z,6.8
2018-07-26T00:02:32.216Z,5.3
2018-07-26T00:03:48.080Z,7.1
2018-07-26T00:05:04.032Z,6.2
2018-07-26T00:06:19.916Z,7.3
2018-07-26T00:07:35.792Z,9.9
2018-07-26T00:08:51.675Z,6.9
2018-07-26T00:10:07.557Z,8.4
2018-07-26T00:11:23.409Z,7.7
2018-07-26T00:12:39.289Z,6.6
2018-07-26T00:13:55.168Z,6
2018-07-26T00:15:11.044Z,6.7
2018-07-26T00:16:26.952Z,6.8
2018-07-26T00:17:42.807Z,7.2
2018-07-26T00:18:58.713Z,6.4
2018-07-26T00:20:14.576Z,6.4
2018-07-26T00:21:30.528Z,7.3
2018-07-26T00:22:46.390Z,6.7
2018-07-26T00:24:02.309Z,6.4
2018-07-26T00:25:18.174Z,6.1
2018-07-26T00:26:34.051Z,7.1
2018-07-26T00:27:49.932Z,6.2
2018-07-26T00:29:05.843Z,6.5
2018-07-26T00:30:21.730Z,6.3
2018-07-26T00:31:37.749Z,5.9
2018-07-26T00:32:53.637Z,6.4
2018-07-26T00:34:09.515Z,6.4
2018-07-26T00:35:25.374Z,7.9
2018-07-26T00:36:41.255Z,7.8
2018-07-26T00:37:57.200Z,6.1
2018-07-26T00:39:13.092Z,7.2
2018-07-26T00:40:28.945Z,5.4
2018-07-26T00:41:44.837Z,6.1
2018-07-26T00:43:00.705Z,6.7
2018-07-26T00:44:16.605Z,6.6
2018-07-26T00:45:32.498Z,6.8
2018-07-26T00:46:48.406Z,6.2
2018-07-26T00:48:04.302Z,6.3
2018-07-26T00:49:20.194Z,7.9
2018-07-26T00:50:37.097Z,6.3
2018-07-26T00:51:53.019Z,6.2
2018-07-26T00:53:08.890Z,6.4
2018-07-26T00:54:24.903Z,7.5
2018-07-26T00:55:40.753Z,6.4
2018-07-26T00:56:56.631Z,7.7
2018-07-26T00:58:12.542Z,6.8
2018-07-26T00:59:28.399Z,7.4
2018-07-26T01:00:44.319Z,9.1
2018-07-26T01:02:00.221Z,6.9
2018-07-26T01:03:16.134Z,6.5
2018-07-26T01:04:32.025Z,6.7
2018-07-26T01:05:47.874Z,6.2
2018-07-26T01:07:03.760Z,6.6
2018-07-26T01:08:19.633Z,6.4
2018-07-26T01:09:35.558Z,6.7
2018-07-26T01:10:51.384Z,7.3
2018-07-26T01:12:07.305Z,6.1
2018-07-26T01:13:23.161Z,6.8
2018-07-26T01:14:39.009Z,7.3
2018-07-26T01:15:54.868Z,6.1
2018-07-26T01:17:10.746Z,7.1
2018-07-26T01:18:26.593Z,7.5
2018-07-26T01:19:42.449Z,9.8
2018-07-26T01:20:58.299Z,6.5
2018-07-26T01:22:14.182Z,6.2
2018-07-26T01:23:30.054Z,6.2
2018-07-26T01:24:45.900Z,7.7
2018-07-26T01:26:01.768Z,7.2
2018-07-26T01:27:17.638Z,7.9
2018-07-26T01:28:33.557Z,6.9
2018-07-26T01:29:49.435Z,7
2018-07-26T01:31:05.293Z,6.4
2018-07-26T01:32:21.161Z,7
2018-07-26T01:33:37.087Z,7.5
2018-07-26T01:34:53.020Z,6.9
2018-07-26T01:36:08.883Z,7.7
2018-07-26T01:37:24.755Z,6.8
2018-07-26T01:38:40.613Z,7.9
2018-07-26T01:39:57.471Z,6.7
2018-07-26T01:41:13.403Z,6.9
2018-07-26T01:42:29.267Z,7.7
2018-07-26T01:43:45.161Z,8.2
2018-07-26T01:45:01.004Z,6.4
2018-07-26T01:46:16.837Z,7.1
2018-07-26T01:47:32.860Z,6.7
2018-07-26T01:48:48.728Z,7.5
2018-07-26T01:50:04.586Z,6.7
2018-07-26T01:51:20.446Z,6.6
2018-07-26T01:52:36.282Z,6.8
2018-07-26T01:53:52.188Z,6.6
2018-07-26T01:56:48.869Z,6.4
2018-07-26T01:58:04.753Z,6.5
2018-07-26T01:59:20.632Z,6.4
2018-07-26T02:00:36.526Z,6.3
2018-07-26T02:01:52.432Z,7.1
2018-07-26T02:03:08.324Z,6.4
2018-07-26T02:04:24.229Z,6.8
2018-07-26T02:05:40.106Z,7.7
2018-07-26T02:06:55.979Z,6.4
2018-07-26T02:08:11.846Z,6.3
2018-07-26T02:09:27.751Z,6.4
2018-07-26T02:10:43.627Z,5.7
2018-07-26T02:11:59.506Z,6.3
2018-07-26T02:13:15.376Z,6.2
2018-07-26T02:14:31.312Z,5.9
2018-07-26T02:15:47.188Z,6.5
2018-07-26T02:17:03.061Z,6.4
2018-07-26T02:18:18.941Z,6.1
2018-07-26T02:19:34.854Z,6.5
2018-07-26T02:20:50.726Z,6.6
2018-07-26T02:22:06.619Z,6.8
2018-07-26T02:23:22.466Z,7
2018-07-26T02:24:38.355Z,7.3
2018-07-26T02:25:54.211Z,7.3
2018-07-26T02:27:10.139Z,6.7
2018-07-26T02:28:26.015Z,6.9
2018-07-26T02:29:41.878Z,6.6
2018-07-26T02:30:57.801Z,7.6
2018-07-26T02:32:13.632Z,6.5
2018-07-26T02:33:29.502Z,6.9
2018-07-26T02:34:45.381Z,6.8
2018-07-26T02:36:01.259Z,6.8
2018-07-26T02:37:17.146Z,6.6
2018-07-26T02:38:33.022Z,6.5
2018-07-26T02:39:48.925Z,6.9
2018-07-26T02:41:04.786Z,6.8
2018-07-26T02:42:20.661Z,6.6
2018-07-26T02:43:36.528Z,6.3
2018-07-26T02:44:52.395Z,6.3
2018-07-26T02:46:08.285Z,6.2
2018-07-26T02:47:24.297Z,7.2
2018-07-26T02:48:40.199Z,6.6
2018-07-26T02:49:56.062Z,7.1
2018-07-26T02:51:11.921Z,7
2018-07-26T02:52:27.912Z,7.6
2018-07-26T02:53:43.769Z,6.9
2018-07-26T02:54:59.674Z,7.4
2018-07-26T02:56:15.653Z,6.5
2018-07-26T02:57:31.539Z,6.7
2018-07-26T02:58:47.428Z,8.9
2018-07-26T03:00:03.318Z,7.9
2018-07-26T03:01:19.167Z,8.3
2018-07-26T03:02:35.095Z,6.4
2018-07-26T03:03:50.987Z,6.9
2018-07-26T03:05:06.844Z,7.1
2018-07-26T03:06:22.699Z,7.4
2018-07-26T03:07:38.601Z,7.3
2018-07-26T03:08:54.486Z,6.2
2018-07-26T03:10:10.394Z,8.5
2018-07-26T03:11:26.260Z,6.5
2018-07-26T03:12:42.167Z,7.7
2018-07-26T03:13:58.071Z,6.5
2018-07-26T03:15:13.914Z,7.8
2018-07-26T03:16:29.832Z,6.3
2018-07-26T03:17:45.731Z,6.2
2018-07-26T03:19:01.644Z,6.8
2018-07-26T03:20:17.492Z,7.1
2018-07-26T03:21:33.385Z,7.2
2018-07-26T03:22:49.260Z,7.5
2018-07-26T03:24:05.194Z,6.8
2018-07-26T03:25:21.086Z,7.1
2018-07-26T03:26:36.987Z,7.7
2018-07-26T03:27:52.889Z,7.1
2018-07-26T03:29:08.765Z,7.2
2018-07-26T03:30:24.632Z,7.1
2018-07-26T03:31:40.504Z,6.9
2018-07-26T03:32:56.386Z,7
2018-07-26T03:34:12.302Z,7.9
2018-07-26T03:35:28.150Z,7.5
2018-07-26T03:36:44.015Z,7.1
2018-07-26T03:37:59.956Z,7.2
2018-07-26T03:39:15.861Z,7
2018-07-26T03:40:31.724Z,6.8
2018-07-26T03:41:47.608Z,6.6
2018-07-26T03:43:03.470Z,6.8
2018-07-26T03:44:19.377Z,7.9
2018-07-26T03:45:35.288Z,7.2
2018-07-26T03:46:51.183Z,7.3
2018-07-26T03:48:07.067Z,8.8
2018-07-26T03:49:22.971Z,8.2
2018-07-26T03:50:38.874Z,7.3
2018-07-26T03:51:54.745Z,7.5
2018-07-26T03:53:10.705Z,7.1
2018-07-26T03:54:26.622Z,7.3
2018-07-26T03:55:42.548Z,7.9
2018-07-26T03:56:58.397Z,8.4
2018-07-26T03:58:15.048Z,8.5
2018-07-26T03:59:30.903Z,10.2
2018-07-26T04:00:46.773Z,8.3
2018-07-26T04:02:02.688Z,7.5
2018-07-26T04:03:18.614Z,7.7
2018-07-26T04:04:34.492Z,7.7
2018-07-26T04:05:50.358Z,9
2018-07-26T04:07:06.221Z,8
2018-07-26T04:08:22.078Z,8.3
2018-07-26T04:09:37.984Z,8
2018-07-26T04:10:53.854Z,8.7
2018-07-26T04:12:09.709Z,7.9
2018-07-26T04:13:25.595Z,8.6
2018-07-26T04:14:41.545Z,8.4
2018-07-26T04:15:57.429Z,7.9
2018-07-26T04:17:13.315Z,7.3
2018-07-26T04:18:29.231Z,8.1
2018-07-26T04:19:45.142Z,7.7
2018-07-26T04:21:01.034Z,7.8
2018-07-26T04:22:16.931Z,7.5
2018-07-26T04:23:32.900Z,9
2018-07-26T04:24:48.847Z,8.4
2018-07-26T04:26:04.803Z,7.4
2018-07-26T04:27:20.647Z,9.5
2018-07-26T04:28:36.601Z,8
2018-07-26T04:29:52.470Z,7.7
2018-07-26T04:31:08.401Z,7.8
2018-07-26T04:32:24.361Z,9.5
2018-07-26T04:33:40.296Z,7.3
2018-07-26T04:34:56.191Z,8.4
2018-07-26T04:36:12.112Z,7.7
2018-07-26T04:37:28.013Z,8.9
2018-07-26T04:38:43.962Z,7.7
2018-07-26T04:39:59.848Z,9.3
2018-07-26T04:41:15.801Z,12.2
2018-07-26T04:42:31.766Z,9.7
2018-07-26T04:43:47.746Z,7.9
2018-07-26T04:45:03.691Z,8
2018-07-26T04:46:19.632Z,10.4
2018-07-26T04:47:36.537Z,7.3
2018-07-26T04:48:52.489Z,8.2
2018-07-26T04:50:08.414Z,7.8
2018-07-26T04:51:24.342Z,8.6
2018-07-26T04:52:40.281Z,7.4
2018-07-26T04:53:56.241Z,7.8
2018-07-26T04:55:12.236Z,8.2
2018-07-26T04:56:28.106Z,8.1
2018-07-26T04:57:44.030Z,8.4
2018-07-26T04:58:59.943Z,11.2
2018-07-26T05:00:15.824Z,10.1
2018-07-26T05:01:31.716Z,7.9
2018-07-26T05:02:47.680Z,11
2018-07-26T05:04:03.587Z,9.3
2018-07-26T05:05:19.454Z,8.2
2018-07-26T05:06:35.366Z,8.5
2018-07-26T05:07:51.264Z,9.8
2018-07-26T05:09:07.159Z,9
2018-07-26T05:10:23.023Z,10
2018-07-26T05:11:38.884Z,11.3
2018-07-26T05:12:54.785Z,8.2
2018-07-26T05:14:10.682Z,10.1
2018-07-26T05:15:26.569Z,12.2
2018-07-26T05:16:42.447Z,9.6
2018-07-26T05:17:58.363Z,12.7
2018-07-26T05:19:14.234Z,8.1
2018-07-26T05:20:30.158Z,10.8
2018-07-26T05:21:46.038Z,11
2018-07-26T05:23:01.931Z,8.2
2018-07-26T05:24:17.849Z,7.8
2018-07-26T05:25:33.749Z,8.4
2018-07-26T05:26:49.644Z,9.4
2018-07-26T05:28:05.497Z,8.4
2018-07-26T05:29:21.395Z,7.3
2018-07-26T05:30:37.310Z,9
2018-07-26T05:31:53.169Z,10.7
2018-07-26T05:33:09.020Z,8.6
2018-07-26T05:34:24.966Z,10.2
2018-07-26T05:35:40.876Z,15.4
2018-07-26T05:36:56.766Z,9.4
2018-07-26T05:38:12.649Z,9.9
2018-07-26T05:39:28.582Z,8.5
2018-07-26T05:40:44.489Z,8.4
2018-07-26T05:42:00.371Z,7.8
2018-07-26T05:43:16.373Z,7.7
2018-07-26T05:44:32.171Z,9.3
2018-07-26T05:45:48.071Z,9.5
2018-07-26T05:47:03.976Z,11.2
2018-07-26T05:48:19.860Z,7.8
2018-07-26T05:49:35.790Z,9.8
2018-07-26T05:50:51.731Z,9.3
2018-07-26T05:52:07.625Z,8.9
2018-07-26T05:53:23.532Z,7.1
2018-07-26T05:54:39.419Z,6.6
2018-07-26T05:55:55.310Z,6.8
2018-07-26T05:57:11.182Z,8.9
2018-07-26T05:58:27.120Z,8.3
2018-07-26T05:59:43.023Z,12.6
2018-07-26T06:00:58.895Z,16.6
2018-07-26T06:02:14.775Z,9.3
2018-07-26T06:03:30.701Z,10.9
2018-07-26T06:04:46.577Z,12
2018-07-26T06:06:02.491Z,10.5
2018-07-26T06:07:18.380Z,10
2018-07-26T06:08:34.238Z,8.1
2018-07-26T06:09:50.114Z,8.3
2018-07-26T06:11:06.022Z,8.5
2018-07-26T06:12:21.963Z,9.4
2018-07-26T06:13:37.830Z,9.6
2018-07-26T06:14:53.701Z,6.6
2018-07-26T06:16:09.590Z,10.1
2018-07-26T06:17:25.458Z,8.8
2018-07-26T06:18:41.340Z,7
2018-07-26T06:19:57.204Z,8.3
2018-07-26T06:21:13.112Z,8.4
2018-07-26T06:22:28.975Z,7.5
2018-07-26T06:23:44.842Z,7.5
2018-07-26T06:25:00.732Z,9.2
2018-07-26T06:26:16.636Z,8.4
2018-07-26T06:27:32.589Z,7.7
2018-07-26T06:28:48.447Z,7.4
2018-07-26T06:30:04.350Z,8.3
2018-07-26T06:31:20.272Z,10
2018-07-26T06:32:36.169Z,8.3
2018-07-26T06:33:52.116Z,6.6
2018-07-26T06:35:08.032Z,6.2
2018-07-26T06:36:23.935Z,8.3
2018-07-26T06:37:39.848Z,7.7
2018-07-26T06:38:56.774Z,7.7
2018-07-26T06:40:12.687Z,9.1
2018-07-26T06:41:28.656Z,8.9
2018-07-26T06:42:44.531Z,8.2
2018-07-26T06:44:00.468Z,8.1
2018-07-26T06:45:16.454Z,6.4
2018-07-26T06:46:32.374Z,6.9
2018-07-26T06:47:48.272Z,7.4
2018-07-26T06:49:04.174Z,9.3
2018-07-26T06:50:20.128Z,8.6
2018-07-26T06:51:36.038Z,7
2018-07-26T06:52:51.917Z,7.1
2018-07-26T06:54:07.817Z,7.4
2018-07-26T06:55:23.722Z,7.5
2018-07-26T06:56:39.636Z,7.8
2018-07-26T06:57:55.580Z,8.1
2018-07-26T06:59:11.457Z,6.7
2018-07-26T07:00:27.359Z,8.1
2018-07-26T07:01:43.209Z,6.3
2018-07-26T07:02:59.282Z,7.3
2018-07-26T07:04:15.151Z,11.9
2018-07-26T07:05:31.029Z,6.6
2018-07-26T07:06:46.946Z,7.8
2018-07-26T07:08:02.819Z,7.3
2018-07-26T07:09:18.726Z,7.3
2018-07-26T07:10:34.594Z,7.9
2018-07-26T07:11:50.521Z,7.4
2018-07-26T07:13:06.427Z,7.2
2018-07-26T07:14:22.311Z,9.8
2018-07-26T07:15:38.211Z,10.1
2018-07-26T07:16:54.154Z,6.8
2018-07-26T07:18:10.101Z,10.1
2018-07-26T07:19:26.048Z,6.9
2018-07-26T07:20:41.966Z,19.6
2018-07-26T07:21:57.885Z,13.8
2018-07-26T07:23:13.806Z,16.9
2018-07-26T07:24:29.729Z,11.4
2018-07-26T07:25:45.644Z,14.1
2018-07-26T07:27:01.542Z,16.6
2018-07-26T07:28:17.431Z,8.1
2018-07-26T07:29:33.383Z,10.2
2018-07-26T07:30:49.351Z,13.6
2018-07-26T07:32:05.252Z,10.3
2018-07-26T07:33:21.179Z,11.4
2018-07-26T07:34:37.089Z,11.2
2018-07-26T07:35:53.014Z,10.5
2018-07-26T07:37:08.891Z,13.6
2018-07-26T07:38:24.828Z,6.4
2018-07-26T07:39:40.756Z,9.6
2018-07-26T07:40:56.654Z,7.7
2018-07-26T07:42:12.586Z,9.1
2018-07-26T07:43:28.508Z,9.5
2018-07-26T07:44:44.426Z,8.4
2018-07-26T07:46:00.311Z,8.4
2018-07-26T07:47:16.334Z,8.3
2018-07-26T07:48:32.141Z,7.6
2018-07-26T07:49:47.986Z,7.9
2018-07-26T07:51:03.872Z,7
2018-07-26T07:52:19.788Z,7.1
2018-07-26T07:53:35.686Z,8.6
2018-07-26T07:54:51.610Z,7.1
2018-07-26T07:56:07.529Z,7.5
2018-07-26T07:57:23.423Z,6.9
2018-07-26T07:58:39.325Z,8.1
2018-07-26T07:59:55.250Z,7.2
2018-07-26T08:01:11.112Z,8.3
2018-07-26T08:02:27.075Z,7.7
2018-07-26T08:03:43.020Z,8.3
2018-07-26T08:04:59.904Z,7.7
2018-07-26T08:06:15.771Z,8
2018-07-26T08:07:31.708Z,7.3
2018-07-26T08:08:47.603Z,8.6
2018-07-26T08:10:03.493Z,6.9
2018-07-26T08:11:19.443Z,8.9
2018-07-26T08:12:35.336Z,11.6
2018-07-26T08:13:51.164Z,7
2018-07-26T08:15:07.037Z,7.9
2018-07-26T08:16:22.894Z,9.2
2018-07-26T08:17:38.835Z,7.3
2018-07-26T08:18:54.739Z,7.3
2018-07-26T08:20:10.650Z,7.6
2018-07-26T08:21:26.573Z,8.1
2018-07-26T08:22:42.404Z,7.8
2018-07-26T08:23:58.351Z,7.5
2018-07-26T08:25:14.248Z,11.2
2018-07-26T08:26:30.143Z,10.1
2018-07-26T08:27:46.044Z,7.7
2018-07-26T08:29:01.969Z,7.4
2018-07-26T08:30:17.855Z,7.8
2018-07-26T08:31:33.775Z,8.5
2018-07-26T08:32:49.626Z,7.8
2018-07-26T08:34:05.549Z,7.6
2018-07-26T08:35:21.429Z,8.2
2018-07-26T08:36:37.348Z,10.9
2018-07-26T08:37:53.216Z,9.6
2018-07-26T08:39:09.098Z,8.9
2018-07-26T08:40:24.995Z,9.2
2018-07-26T08:41:40.897Z,10.5
2018-07-26T08:42:56.786Z,11.4
2018-07-26T08:44:12.688Z,8.5
2018-07-26T08:45:28.621Z,7.8
2018-07-26T08:46:44.515Z,8.7
2018-07-26T08:48:00.382Z,9.7
2018-07-26T08:49:16.271Z,8.5
2018-07-26T08:50:32.205Z,8.9
2018-07-26T08:51:48.168Z,9.3
2018-07-26T08:53:04.129Z,11.5
2018-07-26T08:54:20.044Z,8.3
2018-07-26T08:55:35.943Z,10
2018-07-26T08:56:51.812Z,10.4
2018-07-26T08:58:07.705Z,11.9
2018-07-26T08:59:23.597Z,8.6
2018-07-26T09:00:39.507Z,8.4
2018-07-26T09:01:56.437Z,9.6
2018-07-26T09:03:12.365Z,10.9
2018-07-26T09:04:28.274Z,9.6
2018-07-26T09:05:44.169Z,8.4
2018-07-26T09:07:00.084Z,10
2018-07-26T09:08:15.957Z,11.9
2018-07-26T09:09:31.855Z,10.2
2018-07-26T09:10:47.806Z,10.2
2018-07-26T09:12:03.754Z,8.8
2018-07-26T09:13:19.659Z,11.8
2018-07-26T09:14:35.543Z,11.2
2018-07-26T09:15:51.453Z,9.2
2018-07-26T09:17:07.359Z,10
2018-07-26T09:18:23.418Z,10.7
2018-07-26T09:19:39.402Z,9.6
2018-07-26T09:20:55.231Z,8.9
2018-07-26T09:22:11.145Z,12
2018-07-26T09:23:27.753Z,10.8
2018-07-26T09:26:24.294Z,9
2018-07-26T09:27:40.437Z,11.9
2018-07-26T09:30:37.255Z,11
2018-07-26T09:31:53.197Z,11.8
2018-07-26T09:36:30.943Z,9.2
2018-07-26T09:37:46.884Z,9.6
2018-07-26T09:39:02.801Z,11.8
2018-07-26T09:40:18.778Z,11.9
2018-07-26T09:41:34.756Z,10.7
2018-07-26T09:42:50.667Z,11.6
2018-07-26T09:44:06.574Z,10.6
2018-07-26T09:45:22.507Z,10.4
2018-07-26T09:48:19.148Z,10
2018-07-26T09:49:35.162Z,9.7
2018-07-26T09:50:51.048Z,9.7
2018-07-26T09:52:07.057Z,11.5
2018-07-26T09:53:22.964Z,10
2018-07-26T09:54:39.099Z,14.6
2018-07-26T09:55:54.983Z,9.4
2018-07-26T09:57:10.894Z,14.9
2018-07-26T09:58:26.796Z,10.4
2018-07-26T09:59:42.683Z,10.8
2018-07-26T10:00:58.638Z,10
2018-07-26T10:02:14.620Z,9.5
2018-07-26T10:03:30.525Z,9.2
2018-07-26T10:04:46.433Z,9.7
2018-07-26T10:06:02.386Z,11
2018-07-26T10:07:18.291Z,10.8
2018-07-26T10:08:34.236Z,9.9
2018-07-26T10:09:50.154Z,10
2018-07-26T10:11:06.032Z,10.7
2018-07-26T10:12:22.933Z,10.8
2018-07-26T10:13:38.847Z,10.2
2018-07-26T10:14:54.863Z,11
2018-07-26T10:16:10.705Z,11
2018-07-26T10:17:26.657Z,13.5
2018-07-26T10:18:42.572Z,9
2018-07-26T10:19:58.502Z,10.5
2018-07-26T10:21:14.436Z,10.2
2018-07-26T10:22:30.361Z,10.9
2018-07-26T10:23:46.236Z,12.9
2018-07-26T10:25:02.173Z,10.5
2018-07-26T10:26:18.073Z,10
2018-07-26T10:27:33.943Z,11.1
2018-07-26T10:28:49.803Z,9.2
2018-07-26T10:30:05.745Z,10.1
2018-07-26T10:31:21.649Z,10.4
2018-07-26T10:32:37.588Z,9.9
2018-07-26T10:33:53.482Z,9.2
2018-07-26T10:35:09.379Z,9.5
2018-07-26T10:36:25.352Z,10.5
2018-07-26T10:37:41.279Z,9.9
2018-07-26T10:38:57.130Z,9.6
2018-07-26T10:40:13.049Z,9.6
2018-07-26T10:41:28.985Z,11.9
2018-07-26T10:42:44.890Z,9
2018-07-26T10:44:00.802Z,9.8
2018-07-26T10:45:16.714Z,9.9
2018-07-26T10:46:32.610Z,10.2
2018-07-26T10:47:48.524Z,10
2018-07-26T10:49:04.542Z,8.9
2018-07-26T10:50:20.819Z,10.3
2018-07-26T10:51:36.980Z,11
2018-07-26T10:52:52.863Z,10.1
2018-07-26T10:54:09.136Z,8.9
2018-07-26T10:55:25.056Z,8.6
2018-07-26T10:56:40.940Z,8.5
2018-07-26T10:57:56.876Z,8.8
2018-07-26T10:59:12.796Z,8.7
2018-07-26T11:00:28.704Z,8.1
2018-07-26T11:01:44.609Z,8.1
2018-07-26T11:03:00.518Z,8.7
2018-07-26T11:04:16.404Z,9.6
2018-07-26T11:05:32.343Z,9
2018-07-26T11:06:48.253Z,8
2018-07-26T11:08:04.135Z,8.3
2018-07-26T11:09:20.005Z,8
2018-07-26T11:10:35.951Z,8.6
2018-07-26T11:11:51.836Z,7.1
2018-07-26T11:13:07.742Z,10.2
2018-07-26T11:14:23.660Z,7
2018-07-26T11:15:39.611Z,7.7
2018-07-26T11:16:55.473Z,8.1
2018-07-26T11:18:11.413Z,8.8
2018-07-26T11:19:27.389Z,6.8
2018-07-26T11:20:43.364Z,7.7
2018-07-26T11:21:59.296Z,6
2018-07-26T11:23:15.203Z,6.9
2018-07-26T11:24:31.194Z,7.3
2018-07-26T11:25:47.330Z,7.6
2018-07-26T11:27:03.267Z,8.5
2018-07-26T11:28:19.136Z,6.3
2018-07-26T11:29:35.056Z,7.6
2018-07-26T11:30:50.900Z,5.7
2018-07-26T11:32:06.806Z,5.8
2018-07-26T11:33:22.723Z,6.7
2018-07-26T11:34:38.637Z,6.5
2018-07-26T11:35:54.594Z,6.5
2018-07-26T11:37:10.581Z,7.3
2018-07-26T11:38:26.565Z,5
2018-07-26T11:39:42.456Z,4.5
2018-07-26T11:40:58.430Z,4.2
2018-07-26T11:42:14.498Z,4.6
2018-07-26T11:43:30.494Z,4
2018-07-26T11:44:46.383Z,3.4
2018-07-26T11:46:02.260Z,4.1
2018-07-26T11:47:18.136Z,4.1
2018-07-26T11:48:34.330Z,4.3
2018-07-26T11:49:50.248Z,4.6
2018-07-26T11:51:06.269Z,4
2018-07-26T11:52:22.165Z,3.2
2018-07-26T11:53:38.065Z,2.9
2018-07-26T11:54:54.034Z,4.6
2018-07-26T11:56:09.953Z,3.1
2018-07-26T11:57:25.876Z,3.4
2018-07-26T11:58:41.812Z,5.7
2018-07-26T11:59:57.779Z,2.4
2018-07-26T12:01:13.690Z,5.2
2018-07-26T12:02:29.655Z,4.6
2018-07-26T12:03:45.506Z,4.7
2018-07-26T12:05:01.447Z,4.3
2018-07-26T12:06:17.324Z,3.6
2018-07-26T12:07:33.213Z,5.3
2018-07-26T12:08:49.153Z,4.5
2018-07-26T12:10:05.117Z,2.5
2018-07-26T12:11:21.016Z,6.4
2018-07-26T12:12:36.918Z,5.9
2018-07-26T12:13:52.905Z,3.8
2018-07-26T12:15:08.803Z,4.5
2018-07-26T12:16:24.699Z,3.3
2018-07-26T12:17:40.747Z,2.9
2018-07-26T12:18:56.662Z,4.1
2018-07-26T12:20:12.607Z,3.7
2018-07-26T12:21:28.582Z,4.8
2018-07-26T12:22:44.474Z,3.9
2018-07-26T12:24:00.458Z,3.2
2018-07-26T12:25:16.424Z,3.9
2018-07-26T12:26:32.325Z,4
2018-07-26T12:27:48.313Z,4.5
2018-07-26T12:29:04.172Z,5.7
2018-07-26T12:30:20.089Z,4.4
2018-07-26T12:31:35.957Z,4.6
2018-07-26T12:32:51.904Z,3.5
2018-07-26T12:34:07.811Z,3.1
2018-07-26T12:35:23.727Z,2.9
2018-07-26T12:36:39.612Z,3.8
2018-07-26T12:37:55.543Z,4
2018-07-26T12:39:11.439Z,4.1
2018-07-26T12:40:27.322Z,5.2
2018-07-26T12:41:43.243Z,4.7
2018-07-26T12:42:59.145Z,3.4
2018-07-26T12:44:15.165Z,4.8
2018-07-26T12:45:31.077Z,4.8
2018-07-26T12:48:28.074Z,4.9
2018-07-26T12:49:43.956Z,5.8
2018-07-26T12:50:59.851Z,4.6
2018-07-26T12:52:15.749Z,3.3
2018-07-26T12:53:31.647Z,3.8
2018-07-26T12:54:48.554Z,3.3
2018-07-26T12:56:04.401Z,4.7
2018-07-26T12:57:20.308Z,6.5
2018-07-26T12:58:36.876Z,14
2018-07-26T12:59:52.774Z,5.9
2018-07-26T13:01:08.677Z,5
2018-07-26T13:02:24.625Z,5.3
2018-07-26T13:03:40.535Z,4.9
2018-07-26T13:04:56.462Z,3.3
2018-07-26T13:06:12.369Z,3.6
2018-07-26T13:07:28.306Z,5.9
2018-07-26T13:08:44.221Z,3.8
2018-07-26T13:10:00.144Z,4.2
2018-07-26T13:11:16.028Z,3.3
2018-07-26T13:12:31.925Z,3
2018-07-26T13:13:47.887Z,2.5
2018-07-26T13:15:03.781Z,3
2018-07-26T13:16:19.679Z,3.8
2018-07-26T13:17:35.522Z,2.9
2018-07-26T13:18:51.469Z,2.8
2018-07-26T13:20:07.338Z,3.1
2018-07-26T13:21:23.246Z,3.7
2018-07-26T13:22:39.127Z,2.9
2018-07-26T13:23:55.093Z,3.3
2018-07-26T13:25:10.986Z,3.4
2018-07-26T13:26:26.899Z,3.5
2018-07-26T13:27:42.821Z,3.4
2018-07-26T13:28:58.784Z,2.6
2018-07-26T13:30:14.666Z,2.5
2018-07-26T13:31:30.599Z,4.4
2018-07-26T13:32:46.564Z,3.3
2018-07-26T13:34:02.464Z,5.1
2018-07-26T13:35:18.331Z,3.6
2018-07-26T13:36:34.265Z,3.5
2018-07-26T13:37:50.182Z,2.4
2018-07-26T13:39:06.110Z,3.1
2018-07-26T13:40:22.059Z,2.5
2018-07-26T13:41:37.926Z,5.6
2018-07-26T13:42:53.816Z,5.8
2018-07-26T13:44:09.859Z,2.9
2018-07-26T13:45:25.812Z,3.8
2018-07-26T13:46:41.722Z,4.2
2018-07-26T13:47:57.623Z,4.4
2018-07-26T13:49:13.603Z,3.2
2018-07-26T13:50:29.526Z,3.7
2018-07-26T13:51:45.406Z,4.3
2018-07-26T13:53:01.366Z,3.5
2018-07-26T13:54:17.281Z,3.6
2018-07-26T13:55:33.201Z,3.4
2018-07-26T13:56:49.099Z,4.4
2018-07-26T13:58:05.030Z,3.4
2018-07-26T13:59:20.961Z,4.3
2018-07-26T14:00:36.851Z,2.6
2018-07-26T14:01:52.780Z,3.1
2018-07-26T14:03:08.692Z,2.4
2018-07-26T14:04:24.644Z,4
2018-07-26T14:05:40.598Z,3.8
2018-07-26T14:06:56.493Z,2.9
2018-07-26T14:08:12.505Z,4.6
2018-07-26T14:09:28.401Z,2.6
2018-07-26T14:10:44.320Z,3.8
2018-07-26T14:12:00.352Z,4
2018-07-26T14:13:16.232Z,5
2018-07-26T14:14:32.180Z,3.1
2018-07-26T14:15:48.229Z,4.8
2018-07-26T14:17:03.982Z,3.2
2018-07-26T14:18:19.896Z,4.6
2018-07-26T14:19:35.849Z,3.8
2018-07-26T14:20:51.837Z,4
2018-07-26T14:22:08.704Z,2.8
2018-07-26T14:23:24.657Z,2.8
2018-07-26T14:24:40.595Z,3.4
2018-07-26T14:25:56.538Z,3.8
2018-07-26T14:27:12.529Z,4.4
2018-07-26T14:28:28.398Z,2.8
2018-07-26T14:29:44.316Z,4.1
2018-07-26T14:31:00.184Z,2.2
2018-07-26T14:32:16.075Z,2.7
2018-07-26T14:33:31.960Z,3.2
2018-07-26T14:34:47.863Z,3.4
2018-07-26T14:36:03.810Z,4.1
2018-07-26T14:37:19.767Z,2.8
2018-07-26T14:38:35.654Z,3.6
2018-07-26T14:39:51.523Z,3.7
2018-07-26T14:41:07.420Z,3
2018-07-26T14:42:23.345Z,3.5
2018-07-26T14:43:39.237Z,3.8
2018-07-26T14:44:55.253Z,3.2
2018-07-26T14:46:11.138Z,2.8
2018-07-26T14:47:27.029Z,2.4
2018-07-26T14:48:43.061Z,3.1
2018-07-26T14:49:59.009Z,3.3
2018-07-26T14:51:15.117Z,2.6
2018-07-26T14:52:31.003Z,3.5
2018-07-26T14:53:46.933Z,3
2018-07-26T14:55:02.846Z,2.7
2018-07-26T14:56:18.779Z,2.7
2018-07-26T14:57:34.723Z,3
2018-07-26T14:58:50.705Z,4
2018-07-26T15:00:07.605Z,3.6
2018-07-26T15:01:23.556Z,2.9
2018-07-26T15:02:39.501Z,2.4
2018-07-26T15:03:55.451Z,3.3
2018-07-26T15:05:11.427Z,4.2
2018-07-26T15:06:27.365Z,2.5
2018-07-26T15:07:43.290Z,3.4
2018-07-26T15:08:59.233Z,2.7
2018-07-26T15:10:15.110Z,2.7
2018-07-26T15:11:31.040Z,2.3
2018-07-26T15:12:46.961Z,3.8
2018-07-26T15:14:02.898Z,5
2018-07-26T15:15:18.793Z,3.5
2018-07-26T15:16:34.728Z,4.5
2018-07-26T15:17:50.644Z,4.9
2018-07-26T15:19:06.611Z,3.9
2018-07-26T15:20:22.526Z,3.7
2018-07-26T15:21:38.474Z,5.4
2018-07-26T15:22:54.435Z,2.5
2018-07-26T15:24:10.391Z,2.6
2018-07-26T15:25:26.380Z,2.5
2018-07-26T15:26:42.299Z,2.9
2018-07-26T15:27:58.323Z,6.3
2018-07-26T15:29:14.281Z,5.1
2018-07-26T15:30:30.265Z,4.1
2018-07-26T15:31:46.153Z,3.5
2018-07-26T15:33:02.125Z,4.1
2018-07-26T15:34:18.086Z,2.2
2018-07-26T15:35:34.100Z,2.7
2018-07-26T15:36:50.014Z,4.6
2018-07-26T15:38:06.021Z,5.6
2018-07-26T15:39:21.948Z,3.7
2018-07-26T15:40:37.902Z,4.2
2018-07-26T15:41:53.828Z,2.3
2018-07-26T15:43:09.834Z,3.6
2018-07-26T15:44:25.978Z,6.3
2018-07-26T15:45:42.006Z,6.2
2018-07-26T15:46:58.018Z,3
2018-07-26T15:48:13.944Z,4.5
2018-07-26T15:49:29.880Z,8.6
2018-07-26T15:50:45.839Z,4.9
2018-07-26T15:52:01.826Z,2.9
2018-07-26T15:53:17.793Z,4.2
2018-07-26T15:54:33.942Z,3.1
2018-07-26T15:55:51.038Z,2.9
2018-07-26T15:57:07.612Z,4.7
2018-07-26T15:58:24.083Z,3.1
2018-07-26T15:59:40.275Z,3.7
2018-07-26T16:02:36.959Z,2.6
2018-07-26T16:03:52.902Z,3.4
2018-07-26T16:05:08.880Z,3.3
2018-07-26T16:06:24.800Z,4.1
2018-07-26T16:07:40.719Z,3.5
2018-07-26T16:08:56.633Z,4.7
2018-07-26T16:10:12.692Z,4.2
2018-07-26T16:11:28.676Z,5.1
2018-07-26T16:14:25.385Z,3
2018-07-26T16:15:41.424Z,3.9
2018-07-26T16:16:57.505Z,4
2018-07-26T16:18:13.530Z,3.7
2018-07-26T16:19:29.351Z,3.5
2018-07-26T16:20:45.331Z,4
2018-07-26T16:22:01.304Z,3.9
2018-07-26T16:23:17.198Z,3.4
2018-07-26T16:24:33.134Z,4
2018-07-26T16:25:49.077Z,5.8
2018-07-26T16:27:05.340Z,4.4
2018-07-26T16:28:21.238Z,4.1
2018-07-26T16:29:37.174Z,5.1
2018-07-26T16:30:53.148Z,3.7
2018-07-26T16:32:10.117Z,4.9
2018-07-26T16:33:26.062Z,6.1
2018-07-26T16:34:41.995Z,3.6
2018-07-26T16:35:57.955Z,3.6
2018-07-26T16:37:13.893Z,4.3
2018-07-26T16:38:29.829Z,4.5
2018-07-26T16:39:46.326Z,4.8
2018-07-26T16:41:03.142Z,5.3
2018-07-26T16:42:19.817Z,4.6
2018-07-26T16:43:36.000Z,3.7
2018-07-26T16:44:51.935Z,6.5
2018-07-26T16:46:07.910Z,3.1
2018-07-26T16:47:23.824Z,4.9
2018-07-26T16:48:39.798Z,9.7
2018-07-26T16:49:55.747Z,5.1
2018-07-26T16:51:11.922Z,13.8
2018-07-26T16:55:25.350Z,3.2
2018-07-26T16:56:41.293Z,5.4
2018-07-26T16:57:57.254Z,5.2
2018-07-26T16:59:13.236Z,3.6
2018-07-26T17:00:29.157Z,2.8
2018-07-26T17:01:45.156Z,4.1
2018-07-26T17:03:01.043Z,3.5
2018-07-26T17:04:17.048Z,3.2
2018-07-26T17:05:32.964Z,4.8
2018-07-26T17:06:48.967Z,4
2018-07-26T17:08:05.004Z,5.5
2018-07-26T17:09:20.912Z,3.8
2018-07-26T17:10:36.867Z,4.5
2018-07-26T17:11:52.780Z,4.6
2018-07-26T17:13:08.749Z,3.9
2018-07-26T17:14:24.758Z,2.7
2018-07-26T17:15:40.717Z,2.6
2018-07-26T17:16:56.665Z,3.8
2018-07-26T17:18:12.649Z,4.6
2018-07-26T17:19:28.605Z,3.5
2018-07-26T17:20:44.696Z,4.5
2018-07-26T17:22:00.677Z,5
2018-07-26T17:23:17.216Z,3.4
2018-07-26T17:24:33.166Z,3.5
2018-07-26T17:25:49.137Z,3.6
2018-07-26T17:27:05.096Z,5.4
2018-07-26T17:28:21.074Z,4.3
2018-07-26T17:29:36.966Z,3.9
2018-07-26T17:30:54.000Z,3.6
2018-07-26T17:32:09.920Z,5.2
2018-07-26T17:33:26.028Z,5.3
2018-07-26T17:34:42.027Z,3.6
2018-07-26T17:35:57.971Z,4.8
2018-07-26T17:37:13.981Z,3.9
2018-07-26T17:38:30.029Z,5.5
2018-07-26T17:39:46.073Z,7.5
2018-07-26T17:41:02.077Z,4.6
2018-07-26T17:42:18.019Z,5
2018-07-26T17:43:35.073Z,5.1
2018-07-26T17:44:51.051Z,5.6